sensor_id;sensor_type;location;lat;lon;timestamp;pressure;altitude;pressure_sealevel;temperature;humidity
48216;BME280;34005;48.844;10.098;2022-10-31T00:00:20;97121.78;;;15.27;59.20
48216;BME280;34005;48.844;10.098;2022-10-31T00:02:51;97120.75;;;15.21;59.48
48216;BME280;34005;48.844;10.098;2022-10-31T00:05:24;97120.94;;;15.13;59.59
48216;BME280;34005;48.844;10.098;2022-10-31T00:07:55;97119.09;;;15.07;59.64
48216;BME280;34005;48.844;10.098;2022-10-31T00:10:25;97126.97;;;15.00;59.86
48216;BME280;34005;48.844;10.098;2022-10-31T00:12:55;97132.59;;;14.97;60.24
48216;BME280;34005;48.844;10.098;2022-10-31T00:15:25;97132.22;;;15.00;60.10
48216;BME280;34005;48.844;10.098;2022-10-31T00:17:56;97134.25;;;15.05;60.47
48216;BME280;34005;48.844;10.098;2022-10-31T00:20:29;97129.00;;;15.05;59.96
48216;BME280;34005;48.844;10.098;2022-10-31T00:22:59;97120.31;;;15.04;60.78
48216;BME280;34005;48.844;10.098;2022-10-31T00:25:33;97132.59;;;15.04;60.16
48216;BME280;34005;48.844;10.098;2022-10-31T00:28:03;97135.03;;;14.99;59.69
48216;BME280;34005;48.844;10.098;2022-10-31T00:30:33;97133.59;;;14.90;59.85
48216;BME280;34005;48.844;10.098;2022-10-31T00:33:04;97131.91;;;14.82;59.85
48216;BME280;34005;48.844;10.098;2022-10-31T00:35:35;97123.22;;;14.75;60.32
48216;BME280;34005;48.844;10.098;2022-10-31T00:38:05;97128.03;;;14.71;60.20
48216;BME280;34005;48.844;10.098;2022-10-31T00:40:34;97130.88;;;14.70;60.24
48216;BME280;34005;48.844;10.098;2022-10-31T00:43:03;97125.63;;;14.70;60.66
48216;BME280;34005;48.844;10.098;2022-10-31T00:45:33;97128.44;;;14.68;60.19
48216;BME280;34005;48.844;10.098;2022-10-31T00:48:02;97124.56;;;14.64;60.34
48216;BME280;34005;48.844;10.098;2022-10-31T00:50:32;97132.22;;;14.59;60.40
48216;BME280;34005;48.844;10.098;2022-10-31T00:53:04;97124.72;;;14.56;60.58
48216;BME280;34005;48.844;10.098;2022-10-31T00:55:34;97126.34;;;14.57;60.65
48216;BME280;34005;48.844;10.098;2022-10-31T00:58:04;97126.69;;;14.54;60.54
48216;BME280;34005;48.844;10.098;2022-10-31T01:00:34;97128.38;;;14.55;61.14
48216;BME280;34005;48.844;10.098;2022-10-31T01:03:03;97127.97;;;14.58;60.90
48216;BME280;34005;48.844;10.098;2022-10-31T01:05:32;97129.59;;;14.59;60.91
48216;BME280;34005;48.844;10.098;2022-10-31T01:08:04;97122.97;;;14.63;61.80
48216;BME280;34005;48.844;10.098;2022-10-31T01:10:34;97123.19;;;14.68;60.80
48216;BME280;34005;48.844;10.098;2022-10-31T01:13:04;97125.19;;;14.66;60.57
48216;BME280;34005;48.844;10.098;2022-10-31T01:15:35;97125.59;;;14.63;60.41
48216;BME280;34005;48.844;10.098;2022-10-31T01:18:04;97123.34;;;14.60;60.47
48216;BME280;34005;48.844;10.098;2022-10-31T01:20:33;97121.09;;;14.57;60.51
48216;BME280;34005;48.844;10.098;2022-10-31T01:23:05;97121.03;;;14.50;60.43
48216;BME280;34005;48.844;10.098;2022-10-31T01:25:34;97115.78;;;14.50;61.07
48216;BME280;34005;48.844;10.098;2022-10-31T01:28:04;97122.72;;;14.58;61.32
48216;BME280;34005;48.844;10.098;2022-10-31T01:30:33;97121.94;;;14.64;60.91
48216;BME280;34005;48.844;10.098;2022-10-31T01:33:03;97119.94;;;14.66;60.35
48216;BME280;34005;48.844;10.098;2022-10-31T01:35:32;97115.09;;;14.63;59.75
48216;BME280;34005;48.844;10.098;2022-10-31T01:38:00;97121.91;;;14.57;60.11
48216;BME280;34005;48.844;10.098;2022-10-31T01:40:31;97118.03;;;14.53;60.06
48216;BME280;34005;48.844;10.098;2022-10-31T01:43:01;97119.00;;;14.46;59.84
48216;BME280;34005;48.844;10.098;2022-10-31T01:45:30;97115.34;;;14.47;60.98
48216;BME280;34005;48.844;10.098;2022-10-31T01:48:01;97106.69;;;14.46;60.57
48216;BME280;34005;48.844;10.098;2022-10-31T01:50:32;97108.50;;;14.46;60.23
48216;BME280;34005;48.844;10.098;2022-10-31T01:53:05;97108.09;;;14.49;60.58
48216;BME280;34005;48.844;10.098;2022-10-31T01:55:40;97115.97;;;14.49;60.42
48216;BME280;34005;48.844;10.098;2022-10-31T01:58:13;97107.66;;;14.45;60.13
48216;BME280;34005;48.844;10.098;2022-10-31T02:00:45;97109.88;;;14.41;60.11
48216;BME280;34005;48.844;10.098;2022-10-31T02:03:17;97102.78;;;14.35;60.18
48216;BME280;34005;48.844;10.098;2022-10-31T02:05:48;97108.44;;;14.32;60.30
48216;BME280;34005;48.844;10.098;2022-10-31T02:08:21;97116.09;;;14.34;60.68
48216;BME280;34005;48.844;10.098;2022-10-31T02:10:54;97108.63;;;14.31;60.21
48216;BME280;34005;48.844;10.098;2022-10-31T02:13:24;97108.38;;;14.26;60.31
48216;BME280;34005;48.844;10.098;2022-10-31T02:15:56;97102.47;;;14.17;60.37
48216;BME280;34005;48.844;10.098;2022-10-31T02:18:27;97097.38;;;14.09;60.50
48216;BME280;34005;48.844;10.098;2022-10-31T02:21:07;97097.50;;;14.00;60.76
48216;BME280;34005;48.844;10.098;2022-10-31T02:24:06;97097.91;;;13.97;61.09
48216;BME280;34005;48.844;10.098;2022-10-31T02:27:05;97094.03;;;13.93;61.05
48216;BME280;34005;48.844;10.098;2022-10-31T02:32:46;97089.16;;;13.90;61.13
48216;BME280;34005;48.844;10.098;2022-10-31T02:35:26;97080.88;;;13.87;61.23
48216;BME280;34005;48.844;10.098;2022-10-31T02:38:06;97086.31;;;13.85;61.24
48216;BME280;34005;48.844;10.098;2022-10-31T02:40:50;97084.88;;;13.83;61.44
48216;BME280;34005;48.844;10.098;2022-10-31T02:43:26;97085.28;;;13.86;62.05
48216;BME280;34005;48.844;10.098;2022-10-31T02:46:00;97086.31;;;13.85;61.27
48216;BME280;34005;48.844;10.098;2022-10-31T02:48:33;97090.91;;;13.83;61.26
48216;BME280;34005;48.844;10.098;2022-10-31T02:51:05;97089.31;;;13.82;61.08
48216;BME280;34005;48.844;10.098;2022-10-31T02:53:37;97098.41;;;13.86;62.26
48216;BME280;34005;48.844;10.098;2022-10-31T02:56:11;97101.47;;;13.90;61.46
48216;BME280;34005;48.844;10.098;2022-10-31T02:58:44;97090.97;;;13.90;61.58
48216;BME280;34005;48.844;10.098;2022-10-31T03:01:33;97096.78;;;13.85;61.59
48216;BME280;34005;48.844;10.098;2022-10-31T03:04:36;97088.31;;;13.83;61.85
48216;BME280;34005;48.844;10.098;2022-10-31T03:07:15;97095.59;;;13.88;62.22
48216;BME280;34005;48.844;10.098;2022-10-31T03:09:54;97093.16;;;13.86;61.14
48216;BME280;34005;48.844;10.098;2022-10-31T03:12:30;97093.16;;;13.86;63.17
48216;BME280;34005;48.844;10.098;2022-10-31T03:15:12;97094.78;;;13.87;62.38
48216;BME280;34005;48.844;10.098;2022-10-31T03:17:50;97095.78;;;13.86;61.38
48216;BME280;34005;48.844;10.098;2022-10-31T03:20:27;97094.75;;;13.80;61.45
48216;BME280;34005;48.844;10.098;2022-10-31T03:23:01;97094.69;;;13.74;61.41
48216;BME280;34005;48.844;10.098;2022-10-31T03:25:31;97086.16;;;13.65;61.40
48216;BME280;34005;48.844;10.098;2022-10-31T03:28:02;97089.75;;;13.64;61.99
48216;BME280;34005;48.844;10.098;2022-10-31T03:30:35;97089.81;;;13.71;62.67
48216;BME280;34005;48.844;10.098;2022-10-31T03:33:10;97089.25;;;13.75;62.01
48216;BME280;34005;48.844;10.098;2022-10-31T03:35:47;97093.94;;;13.80;62.15
48216;BME280;34005;48.844;10.098;2022-10-31T03:38:17;97097.31;;;13.74;60.70
48216;BME280;34005;48.844;10.098;2022-10-31T03:40:47;97087.56;;;13.68;61.62
48216;BME280;34005;48.844;10.098;2022-10-31T03:43:21;97100.69;;;13.68;61.29
48216;BME280;34005;48.844;10.098;2022-10-31T03:45:53;97100.81;;;13.59;60.75
48216;BME280;34005;48.844;10.098;2022-10-31T03:48:22;97101.31;;;13.48;60.89
48216;BME280;34005;48.844;10.098;2022-10-31T03:53:41;97096.34;;;13.32;61.54
48216;BME280;34005;48.844;10.098;2022-10-31T03:56:17;97097.69;;;13.28;61.74
48216;BME280;34005;48.844;10.098;2022-10-31T03:58:50;97098.03;;;13.25;61.52
48216;BME280;34005;48.844;10.098;2022-10-31T04:01:22;97101.03;;;13.22;61.96
48216;BME280;34005;48.844;10.098;2022-10-31T04:03:52;97103.66;;;13.22;61.80
48216;BME280;34005;48.844;10.098;2022-10-31T04:06:21;97108.25;;;13.19;61.84
48216;BME280;34005;48.844;10.098;2022-10-31T04:08:55;97097.41;;;13.23;62.14
48216;BME280;34005;48.844;10.098;2022-10-31T04:11:28;97100.66;;;13.25;62.25
48216;BME280;34005;48.844;10.098;2022-10-31T04:13:59;97094.78;;;13.23;61.70
48216;BME280;34005;48.844;10.098;2022-10-31T04:16:29;97099.03;;;13.24;61.92
48216;BME280;34005;48.844;10.098;2022-10-31T04:18:57;97094.59;;;13.24;61.69
48216;BME280;34005;48.844;10.098;2022-10-31T04:21:29;97091.81;;;13.26;62.36
48216;BME280;34005;48.844;10.098;2022-10-31T04:23:58;97092.44;;;13.28;62.50
48216;BME280;34005;48.844;10.098;2022-10-31T04:26:26;97089.47;;;13.31;62.34
48216;BME280;34005;48.844;10.098;2022-10-31T04:28:55;97085.84;;;13.32;62.74
48216;BME280;34005;48.844;10.098;2022-10-31T04:31:22;97093.34;;;13.35;62.92
48216;BME280;34005;48.844;10.098;2022-10-31T04:33:50;97086.47;;;13.34;62.82
48216;BME280;34005;48.844;10.098;2022-10-31T04:36:19;97086.28;;;13.35;63.32
48216;BME280;34005;48.844;10.098;2022-10-31T04:38:47;97087.09;;;13.36;63.26
48216;BME280;34005;48.844;10.098;2022-10-31T04:41:17;97084.56;;;13.28;61.90
48216;BME280;34005;48.844;10.098;2022-10-31T04:43:46;97087.31;;;13.19;61.84
48216;BME280;34005;48.844;10.098;2022-10-31T04:46:15;97079.56;;;13.11;61.90
48216;BME280;34005;48.844;10.098;2022-10-31T04:48:43;97080.56;;;13.10;62.45
48216;BME280;34005;48.844;10.098;2022-10-31T04:51:13;97081.53;;;13.09;62.10
48216;BME280;34005;48.844;10.098;2022-10-31T04:53:41;97071.06;;;13.09;62.56
48216;BME280;34005;48.844;10.098;2022-10-31T04:56:10;97072.31;;;13.13;62.71
48216;BME280;34005;48.844;10.098;2022-10-31T04:58:40;97071.91;;;13.10;61.96
48216;BME280;34005;48.844;10.098;2022-10-31T05:01:09;97069.81;;;13.05;62.08
48216;BME280;34005;48.844;10.098;2022-10-31T05:03:38;97066.22;;;13.06;62.29
48216;BME280;34005;48.844;10.098;2022-10-31T05:06:07;97068.22;;;13.04;62.07
48216;BME280;34005;48.844;10.098;2022-10-31T05:08:36;97064.97;;;13.02;62.30
48216;BME280;34005;48.844;10.098;2022-10-31T05:11:05;97065.97;;;13.01;62.32
48216;BME280;34005;48.844;10.098;2022-10-31T05:13:33;97067.97;;;12.99;62.46
48216;BME280;34005;48.844;10.098;2022-10-31T05:16:05;97062.53;;;13.01;63.80
48216;BME280;34005;48.844;10.098;2022-10-31T05:18:34;97067.81;;;13.07;63.08
48216;BME280;34005;48.844;10.098;2022-10-31T05:21:02;97063.28;;;13.16;63.16
48216;BME280;34005;48.844;10.098;2022-10-31T05:23:31;97070.56;;;13.20;62.56
48216;BME280;34005;48.844;10.098;2022-10-31T05:26:00;97059.91;;;13.22;62.62
48216;BME280;34005;48.844;10.098;2022-10-31T05:28:28;97067.59;;;13.24;63.10
48216;BME280;34005;48.844;10.098;2022-10-31T05:30:57;97063.00;;;13.26;63.35
48216;BME280;34005;48.844;10.098;2022-10-31T05:33:27;97061.97;;;13.27;62.39
48216;BME280;34005;48.844;10.098;2022-10-31T05:35:56;97054.31;;;13.25;62.00
48216;BME280;34005;48.844;10.098;2022-10-31T05:38:25;97059.75;;;13.24;62.53
48216;BME280;34005;48.844;10.098;2022-10-31T05:40:54;97055.31;;;13.24;62.58
48216;BME280;34005;48.844;10.098;2022-10-31T05:43:27;97048.06;;;13.26;62.38
48216;BME280;34005;48.844;10.098;2022-10-31T05:45:56;97047.28;;;13.26;62.18
48216;BME280;34005;48.844;10.098;2022-10-31T05:48:25;97045.63;;;13.25;62.30
48216;BME280;34005;48.844;10.098;2022-10-31T05:50:54;97049.88;;;13.26;63.11
48216;BME280;34005;48.844;10.098;2022-10-31T05:53:23;97045.94;;;13.30;63.66
48216;BME280;34005;48.844;10.098;2022-10-31T05:55:51;97043.72;;;13.33;63.42
48216;BME280;34005;48.844;10.098;2022-10-31T05:58:20;97036.31;;;13.37;63.83
48216;BME280;34005;48.844;10.098;2022-10-31T06:00:48;97038.31;;;13.35;63.20
48216;BME280;34005;48.844;10.098;2022-10-31T06:03:16;97032.63;;;13.31;62.43
48216;BME280;34005;48.844;10.098;2022-10-31T06:05:45;97037.25;;;13.29;62.65
48216;BME280;34005;48.844;10.098;2022-10-31T06:08:22;97030.22;;;13.30;62.92
48216;BME280;34005;48.844;10.098;2022-10-31T06:10:50;97027.59;;;13.30;62.82
48216;BME280;34005;48.844;10.098;2022-10-31T06:13:19;97023.34;;;13.29;62.05
48216;BME280;34005;48.844;10.098;2022-10-31T06:15:48;97018.09;;;13.29;62.83
48216;BME280;34005;48.844;10.098;2022-10-31T06:18:17;97027.78;;;13.28;62.23
48216;BME280;34005;48.844;10.098;2022-10-31T06:20:46;97035.38;;;13.23;61.74
48216;BME280;34005;48.844;10.098;2022-10-31T06:23:17;97035.47;;;13.15;61.32
48216;BME280;34005;48.844;10.098;2022-10-31T06:25:50;97034.78;;;13.06;61.38
48216;BME280;34005;48.844;10.098;2022-10-31T06:28:19;97032.28;;;12.98;61.62
48216;BME280;34005;48.844;10.098;2022-10-31T06:30:47;97037.09;;;12.94;62.44
48216;BME280;34005;48.844;10.098;2022-10-31T06:33:16;97039.91;;;12.93;62.37
48216;BME280;34005;48.844;10.098;2022-10-31T06:35:45;97040.69;;;12.93;61.85
48216;BME280;34005;48.844;10.098;2022-10-31T06:38:14;97037.63;;;12.90;61.72
48216;BME280;34005;48.844;10.098;2022-10-31T06:40:43;97043.44;;;12.85;61.81
48216;BME280;34005;48.844;10.098;2022-10-31T06:43:14;97042.00;;;12.83;62.17
48216;BME280;34005;48.844;10.098;2022-10-31T06:45:43;97038.56;;;12.82;62.31
48216;BME280;34005;48.844;10.098;2022-10-31T06:48:12;97032.53;;;12.82;62.51
48216;BME280;34005;48.844;10.098;2022-10-31T06:50:44;97035.78;;;12.84;62.65
48216;BME280;34005;48.844;10.098;2022-10-31T06:53:13;97042.06;;;12.89;62.79
48216;BME280;34005;48.844;10.098;2022-10-31T06:55:43;97037.34;;;12.99;62.95
48216;BME280;34005;48.844;10.098;2022-10-31T06:58:11;97036.41;;;13.07;62.16
48216;BME280;34005;48.844;10.098;2022-10-31T07:00:41;97045.41;;;13.19;62.33
48216;BME280;34005;48.844;10.098;2022-10-31T07:03:12;97049.88;;;13.26;61.38
48216;BME280;34005;48.844;10.098;2022-10-31T07:05:42;97051.16;;;13.30;61.22
48216;BME280;34005;48.844;10.098;2022-10-31T07:08:13;97045.38;;;13.34;60.98
48216;BME280;34005;48.844;10.098;2022-10-31T07:10:42;97034.50;;;13.37;60.83
48216;BME280;34005;48.844;10.098;2022-10-31T07:13:12;97040.19;;;13.41;60.76
48216;BME280;34005;48.844;10.098;2022-10-31T07:15:44;97043.44;;;13.43;61.03
48216;BME280;34005;48.844;10.098;2022-10-31T07:18:12;97029.94;;;13.46;61.41
48216;BME280;34005;48.844;10.098;2022-10-31T07:20:41;97035.44;;;13.51;61.23
48216;BME280;34005;48.844;10.098;2022-10-31T07:23:10;97032.25;;;13.56;61.11
48216;BME280;34005;48.844;10.098;2022-10-31T07:25:40;97031.66;;;13.60;61.51
48216;BME280;34005;48.844;10.098;2022-10-31T07:28:10;97037.75;;;13.68;61.69
48216;BME280;34005;48.844;10.098;2022-10-31T07:30:39;97040.66;;;13.79;61.48
48216;BME280;34005;48.844;10.098;2022-10-31T07:33:09;97046.38;;;13.90;61.76
48216;BME280;34005;48.844;10.098;2022-10-31T07:35:38;97044.06;;;14.01;60.97
48216;BME280;34005;48.844;10.098;2022-10-31T07:38:09;97040.91;;;14.13;60.92
48216;BME280;34005;48.844;10.098;2022-10-31T07:40:38;97038.34;;;14.26;60.71
48216;BME280;34005;48.844;10.098;2022-10-31T07:43:08;97034.16;;;14.38;60.86
48216;BME280;34005;48.844;10.098;2022-10-31T07:45:40;97039.84;;;14.49;59.93
48216;BME280;34005;48.844;10.098;2022-10-31T07:48:11;97044.56;;;14.60;59.83
48216;BME280;34005;48.844;10.098;2022-10-31T07:50:40;97044.00;;;14.71;60.00
48216;BME280;34005;48.844;10.098;2022-10-31T07:53:11;97038.78;;;14.84;60.04
48216;BME280;34005;48.844;10.098;2022-10-31T07:55:40;97043.09;;;14.99;59.55
48216;BME280;34005;48.844;10.098;2022-10-31T07:58:10;97046.97;;;15.16;60.21
48216;BME280;34005;48.844;10.098;2022-10-31T08:00:44;97039.28;;;15.35;60.32
48216;BME280;34005;48.844;10.098;2022-10-31T08:03:16;97034.88;;;15.55;60.42
48216;BME280;34005;48.844;10.098;2022-10-31T08:05:46;97031.03;;;15.78;59.91
48216;BME280;34005;48.844;10.098;2022-10-31T08:08:15;97030.81;;;15.99;59.40
48216;BME280;34005;48.844;10.098;2022-10-31T08:10:44;97028.94;;;16.20;58.41
48216;BME280;34005;48.844;10.098;2022-10-31T08:13:16;97034.34;;;16.38;57.90
48216;BME280;34005;48.844;10.098;2022-10-31T08:15:45;97025.78;;;16.56;57.52
48216;BME280;34005;48.844;10.098;2022-10-31T08:18:21;97028.50;;;16.75;57.37
48216;BME280;34005;48.844;10.098;2022-10-31T08:24:19;97022.25;;;17.14;56.47
48216;BME280;34005;48.844;10.098;2022-10-31T08:26:47;97024.38;;;17.30;56.36
48216;BME280;34005;48.844;10.098;2022-10-31T08:29:15;97014.72;;;17.49;56.13
48216;BME280;34005;48.844;10.098;2022-10-31T08:37:08;97016.44;;;17.87;54.39
48216;BME280;34005;48.844;10.098;2022-10-31T08:39:35;97021.19;;;17.97;54.59
48216;BME280;34005;48.844;10.098;2022-10-31T08:42:03;97010.53;;;18.10;54.39
48216;BME280;34005;48.844;10.098;2022-10-31T08:44:30;97010.38;;;18.24;54.20
48216;BME280;34005;48.844;10.098;2022-10-31T08:46:58;97007.00;;;18.35;53.70
48216;BME280;34005;48.844;10.098;2022-10-31T08:49:25;97006.03;;;18.48;53.34
48216;BME280;34005;48.844;10.098;2022-10-31T08:51:53;97002.97;;;18.63;53.58
48216;BME280;34005;48.844;10.098;2022-10-31T08:54:22;96999.59;;;18.74;52.95
48216;BME280;34005;48.844;10.098;2022-10-31T08:56:53;97000.03;;;18.89;53.45
48216;BME280;34005;48.844;10.098;2022-10-31T08:59:24;97004.34;;;19.02;53.04
48216;BME280;34005;48.844;10.098;2022-10-31T09:01:51;97000.91;;;19.13;52.54
48216;BME280;34005;48.844;10.098;2022-10-31T09:04:19;96998.97;;;19.21;52.24
48216;BME280;34005;48.844;10.098;2022-10-31T09:06:47;97002.09;;;19.29;52.22
48216;BME280;34005;48.844;10.098;2022-10-31T09:09:35;96991.66;;;19.46;52.34
48216;BME280;34005;48.844;10.098;2022-10-31T09:12:03;96990.63;;;19.59;52.29
48216;BME280;34005;48.844;10.098;2022-10-31T09:14:31;96987.31;;;19.75;51.93
48216;BME280;34005;48.844;10.098;2022-10-31T09:16:58;96994.56;;;19.92;51.67
48216;BME280;34005;48.844;10.098;2022-10-31T09:19:26;96991.19;;;20.08;51.85
48216;BME280;34005;48.844;10.098;2022-10-31T09:21:53;96987.38;;;20.28;51.44
48216;BME280;34005;48.844;10.098;2022-10-31T09:24:21;96992.28;;;20.48;51.07
48216;BME280;34005;48.844;10.098;2022-10-31T09:26:50;96992.59;;;20.63;50.41
48216;BME280;34005;48.844;10.098;2022-10-31T09:29:18;96990.00;;;20.80;50.28
48216;BME280;34005;48.844;10.098;2022-10-31T09:31:45;96979.75;;;21.01;49.62
48216;BME280;34005;48.844;10.098;2022-10-31T09:34:13;96987.06;;;21.27;48.53
48216;BME280;34005;48.844;10.098;2022-10-31T09:36:40;96984.63;;;21.54;48.20
48216;BME280;34005;48.844;10.098;2022-10-31T09:39:09;96988.88;;;21.72;47.90
48216;BME280;34005;48.844;10.098;2022-10-31T09:44:43;96994.06;;;22.01;47.28
48216;BME280;34005;48.844;10.098;2022-10-31T09:47:26;96981.06;;;22.21;47.15
48216;BME280;34005;48.844;10.098;2022-10-31T09:50:06;96990.34;;;22.41;46.37
48216;BME280;34005;48.844;10.098;2022-10-31T09:52:41;96982.69;;;22.45;46.21
48216;BME280;34005;48.844;10.098;2022-10-31T09:55:15;96984.72;;;22.37;46.67
48216;BME280;34005;48.844;10.098;2022-10-31T09:57:44;96988.50;;;22.41;47.51
48216;BME280;34005;48.844;10.098;2022-10-31T10:00:17;96980.00;;;22.67;47.14
48216;BME280;34005;48.844;10.098;2022-10-31T10:02:48;96985.53;;;22.87;46.09
48216;BME280;34005;48.844;10.098;2022-10-31T10:05:20;96976.53;;;22.93;46.70
48216;BME280;34005;48.844;10.098;2022-10-31T10:07:55;96970.97;;;22.95;46.51
48216;BME280;34005;48.844;10.098;2022-10-31T10:10:42;96974.31;;;23.07;46.47
48216;BME280;34005;48.844;10.098;2022-10-31T10:13:39;96975.41;;;23.43;46.29
48216;BME280;34005;48.844;10.098;2022-10-31T10:16:21;96970.84;;;23.76;45.67
48216;BME280;34005;48.844;10.098;2022-10-31T10:19:02;96964.91;;;24.06;45.21
48216;BME280;34005;48.844;10.098;2022-10-31T10:21:39;96972.34;;;24.62;43.93
48216;BME280;34005;48.844;10.098;2022-10-31T10:24:30;96963.88;;;25.73;42.35
48216;BME280;34005;48.844;10.098;2022-10-31T10:27:10;96963.53;;;26.76;39.45
48216;BME280;34005;48.844;10.098;2022-10-31T10:29:50;96959.41;;;27.62;37.50
48216;BME280;34005;48.844;10.098;2022-10-31T10:32:24;96956.03;;;28.29;35.58
48216;BME280;34005;48.844;10.098;2022-10-31T10:34:54;96947.75;;;28.68;35.09
48216;BME280;34005;48.844;10.098;2022-10-31T10:37:29;96953.97;;;29.21;34.60
48216;BME280;34005;48.844;10.098;2022-10-31T10:40:05;96953.94;;;29.72;33.13
48216;BME280;34005;48.844;10.098;2022-10-31T10:42:34;96945.41;;;30.12;32.54
48216;BME280;34005;48.844;10.098;2022-10-31T10:45:20;96947.91;;;30.36;31.90
48216;BME280;34005;48.844;10.098;2022-10-31T10:48:12;96945.41;;;30.39;31.51
48216;BME280;34005;48.844;10.098;2022-10-31T10:50:45;96937.41;;;30.21;31.69
48216;BME280;34005;48.844;10.098;2022-10-31T10:53:25;96939.31;;;30.06;32.57
48216;BME280;34005;48.844;10.098;2022-10-31T10:56:11;96938.81;;;30.32;31.69
48216;BME280;34005;48.844;10.098;2022-10-31T10:58:40;96935.41;;;30.54;31.57
48216;BME280;34005;48.844;10.098;2022-10-31T11:01:11;96927.75;;;30.70;31.23
48216;BME280;34005;48.844;10.098;2022-10-31T11:03:46;96935.13;;;31.14;29.89
48216;BME280;34005;48.844;10.098;2022-10-31T11:06:18;96938.91;;;31.58;29.42
48216;BME280;34005;48.844;10.098;2022-10-31T11:08:48;96927.59;;;31.88;28.87
48216;BME280;34005;48.844;10.098;2022-10-31T11:11:23;96925.53;;;31.85;28.76
48216;BME280;34005;48.844;10.098;2022-10-31T11:13:59;96923.66;;;31.54;29.06
48216;BME280;34005;48.844;10.098;2022-10-31T11:16:29;96916.97;;;31.29;29.81
48216;BME280;34005;48.844;10.098;2022-10-31T11:19:09;96914.41;;;31.24;29.19
48216;BME280;34005;48.844;10.098;2022-10-31T11:21:42;96906.50;;;31.05;29.74
48216;BME280;34005;48.844;10.098;2022-10-31T11:24:21;96910.41;;;30.90;30.07
48216;BME280;34005;48.844;10.098;2022-10-31T11:26:50;96905.22;;;30.79;29.50
48216;BME280;34005;48.844;10.098;2022-10-31T11:29:21;96908.66;;;30.57;30.07
48216;BME280;34005;48.844;10.098;2022-10-31T11:31:52;96911.13;;;30.31;30.52
48216;BME280;34005;48.844;10.098;2022-10-31T11:34:27;96897.56;;;29.95;30.97
48216;BME280;34005;48.844;10.098;2022-10-31T11:37:02;96907.50;;;29.53;31.50
48216;BME280;34005;48.844;10.098;2022-10-31T11:39:30;96904.34;;;29.32;32.21
48216;BME280;34005;48.844;10.098;2022-10-31T11:42:01;96906.47;;;29.35;32.32
48216;BME280;34005;48.844;10.098;2022-10-31T11:44:34;96898.53;;;29.44;32.62
48216;BME280;34005;48.844;10.098;2022-10-31T11:47:03;96897.91;;;29.47;32.36
48216;BME280;34005;48.844;10.098;2022-10-31T11:49:36;96895.84;;;29.44;32.73
48216;BME280;34005;48.844;10.098;2022-10-31T11:52:06;96891.84;;;29.41;32.53
48216;BME280;34005;48.844;10.098;2022-10-31T11:54:41;96882.28;;;29.35;32.34
48216;BME280;34005;48.844;10.098;2022-10-31T11:57:22;96873.59;;;29.10;32.63
48216;BME280;34005;48.844;10.098;2022-10-31T11:59:51;96873.09;;;28.89;33.22
48216;BME280;34005;48.844;10.098;2022-10-31T12:02:20;96866.66;;;29.04;33.20
48216;BME280;34005;48.844;10.098;2022-10-31T12:04:58;96871.66;;;29.44;32.94
48216;BME280;34005;48.844;10.098;2022-10-31T12:07:28;96869.69;;;30.05;31.82
48216;BME280;34005;48.844;10.098;2022-10-31T12:09:55;96868.25;;;30.21;31.77
48216;BME280;34005;48.844;10.098;2022-10-31T12:12:42;96866.50;;;29.75;32.30
48216;BME280;34005;48.844;10.098;2022-10-31T12:15:35;96860.97;;;29.06;33.44
48216;BME280;34005;48.844;10.098;2022-10-31T12:18:21;96849.28;;;28.50;34.01
48216;BME280;34005;48.844;10.098;2022-10-31T12:21:01;96847.75;;;28.01;34.61
48216;BME280;34005;48.844;10.098;2022-10-31T12:23:42;96842.38;;;27.58;35.83
48216;BME280;34005;48.844;10.098;2022-10-31T12:26:17;96846.16;;;27.27;36.30
48216;BME280;34005;48.844;10.098;2022-10-31T12:29:02;96836.22;;;26.99;36.79
48216;BME280;34005;48.844;10.098;2022-10-31T12:31:40;96829.19;;;26.79;37.61
48216;BME280;34005;48.844;10.098;2022-10-31T12:37:10;96827.28;;;26.40;38.05
48216;BME280;34005;48.844;10.098;2022-10-31T12:39:46;96816.97;;;26.23;38.22
48216;BME280;34005;48.844;10.098;2022-10-31T12:42:24;96815.44;;;26.12;38.48
48216;BME280;34005;48.844;10.098;2022-10-31T12:45:26;96819.50;;;25.99;38.61
48216;BME280;34005;48.844;10.098;2022-10-31T12:48:15;96817.97;;;25.82;38.79
48216;BME280;34005;48.844;10.098;2022-10-31T12:50:53;96813.75;;;25.66;38.10
48216;BME280;34005;48.844;10.098;2022-10-31T12:53:40;96812.19;;;25.55;38.31
48216;BME280;34005;48.844;10.098;2022-10-31T12:56:21;96807.44;;;25.41;38.76
48216;BME280;34005;48.844;10.098;2022-10-31T12:58:55;96809.84;;;25.33;38.96
48216;BME280;34005;48.844;10.098;2022-10-31T13:01:27;96802.66;;;25.23;39.45
48216;BME280;34005;48.844;10.098;2022-10-31T13:04:00;96806.66;;;25.15;40.04
48216;BME280;34005;48.844;10.098;2022-10-31T13:06:33;96797.31;;;25.07;40.34
48216;BME280;34005;48.844;10.098;2022-10-31T13:09:14;96793.06;;;25.01;40.24
48216;BME280;34005;48.844;10.098;2022-10-31T13:11:45;96794.94;;;24.96;40.28
48216;BME280;34005;48.844;10.098;2022-10-31T13:14:21;96791.22;;;24.86;40.45
48216;BME280;34005;48.844;10.098;2022-10-31T13:16:51;96785.09;;;24.76;41.19
48216;BME280;34005;48.844;10.098;2022-10-31T13:19:23;96784.03;;;24.72;40.99
48216;BME280;34005;48.844;10.098;2022-10-31T13:21:57;96779.75;;;24.65;41.57
48216;BME280;34005;48.844;10.098;2022-10-31T13:24:33;96781.38;;;24.56;41.93
48216;BME280;34005;48.844;10.098;2022-10-31T13:27:11;96773.06;;;24.47;42.52
48216;BME280;34005;48.844;10.098;2022-10-31T13:29:43;96769.59;;;24.37;41.84
48216;BME280;34005;48.844;10.098;2022-10-31T13:32:14;96763.19;;;24.17;42.34
48216;BME280;34005;48.844;10.098;2022-10-31T13:34:44;96767.97;;;24.00;42.74
48216;BME280;34005;48.844;10.098;2022-10-31T13:37:20;96755.44;;;23.90;42.84